createdAt,value
2018-07-30T03:17:03.028Z,21.26
2018-07-30T03:18:02.985Z,20.74
2018-07-30T03:19:03.007Z,20.93
2018-07-30T03:20:03.002Z,21.24
2018-07-30T03:21:02.972Z,21.29
2018-07-30T03:22:02.983Z,21.29
2018-07-30T03:23:02.972Z,21.21
2018-07-30T03:24:02.969Z,21.32
2018-07-30T03:25:02.988Z,21.53
2018-07-30T03:26:02.964Z,21.79
2018-07-30T03:27:02.969Z,21.72
2018-07-30T03:28:02.964Z,21.63
2018-07-30T03:29:03.227Z,22.16
2018-07-30T03:30:02.978Z,21.42
2018-07-30T03:31:02.983Z,21.32
2018-07-30T03:32:02.985Z,21.13
2018-07-30T03:33:03.002Z,21.53
2018-07-30T03:34:02.984Z,21.72
2018-07-30T03:35:03.031Z,21.63
2018-07-30T03:36:03.008Z,21.76
2018-07-30T03:37:02.996Z,21.60
2018-07-30T03:38:03.039Z,21.50
2018-07-30T03:39:03.049Z,21.30
2018-07-30T03:40:03.006Z,21.14
2018-07-30T03:41:03.014Z,20.81
2018-07-30T03:42:03.014Z,20.91
2018-07-30T03:43:03.037Z,21.14
2018-07-30T03:44:03.037Z,21.19
2018-07-30T03:45:03.042Z,21.21
2018-07-30T03:46:03.037Z,21.35
2018-07-30T03:47:03.046Z,21.48
2018-07-30T03:48:03.071Z,21.54
2018-07-30T03:49:03.079Z,21.63
2018-07-30T03:50:03.066Z,21.29
2018-07-30T03:51:03.080Z,20.74
2018-07-30T03:52:03.074Z,20.89
2018-07-30T03:53:03.070Z,21.08
2018-07-30T03:54:03.060Z,21.41
2018-07-30T03:55:03.075Z,21.06
2018-07-30T03:56:03.112Z,21.01
2018-07-30T03:57:03.065Z,21.39
2018-07-30T03:58:03.160Z,21.53
2018-07-30T03:59:03.079Z,21.50
2018-07-30T04:00:03.187Z,21.11
2018-07-30T04:01:03.104Z,21.06
2018-07-30T04:02:03.139Z,20.83
2018-07-30T04:03:03.105Z,21.24
2018-07-30T04:04:03.120Z,20.80
2018-07-30T04:05:03.098Z,20.79
2018-07-30T04:06:03.134Z,20.62
2018-07-30T04:07:03.172Z,20.77
2018-07-30T04:08:03.106Z,21.16
2018-07-30T04:09:03.126Z,21.38
2018-07-30T04:10:03.122Z,21.38
2018-07-30T04:11:03.120Z,21.50
2018-07-30T04:12:03.124Z,21.53
2018-07-30T04:13:03.158Z,21.13
2018-07-30T04:14:03.145Z,21.46
2018-07-30T04:15:03.141Z,21.57
2018-07-30T04:16:03.212Z,21.51
2018-07-30T04:17:03.134Z,21.45
2018-07-30T04:18:03.155Z,22.12
2018-07-30T04:19:03.144Z,21.97
2018-07-30T04:20:03.149Z,22.06
2018-07-30T04:21:03.210Z,21.67
2018-07-30T04:22:03.225Z,21.36
2018-07-30T04:23:03.167Z,21.61
2018-07-30T04:24:03.197Z,21.69
2018-07-30T04:25:03.220Z,21.79
2018-07-30T04:26:03.183Z,21.79
2018-07-30T04:27:03.180Z,21.38
2018-07-30T04:28:03.184Z,21.63
2018-07-30T04:29:03.198Z,21.64
2018-07-30T04:30:03.200Z,21.71
2018-07-30T04:31:03.207Z,21.56
2018-07-30T04:32:03.194Z,21.81
2018-07-30T04:33:03.203Z,21.85
2018-07-30T04:34:03.208Z,21.95
2018-07-30T04:35:03.219Z,22.16
2018-07-30T04:36:03.244Z,21.97
2018-07-30T04:37:03.244Z,21.78
2018-07-30T04:38:03.232Z,21.91
2018-07-30T04:39:03.268Z,22.19
2018-07-30T04:40:03.275Z,22.35
2018-07-30T04:41:03.250Z,22.50
2018-07-30T04:42:03.261Z,22.82
2018-07-30T04:43:03.242Z,22.89
2018-07-30T04:44:03.252Z,22.90
2018-07-30T04:45:03.276Z,22.94
2018-07-30T04:46:03.285Z,23.11
2018-07-30T04:47:03.293Z,23.12
2018-07-30T04:48:03.273Z,23.17
2018-07-30T04:49:03.293Z,23.42
2018-07-30T04:50:03.293Z,23.80
2018-07-30T04:51:03.282Z,23.94
2018-07-30T04:52:03.314Z,24.02
2018-07-30T04:53:03.307Z,24.17
2018-07-30T04:54:03.308Z,24.42
2018-07-30T04:55:03.338Z,24.59
2018-07-30T04:56:03.324Z,24.77
2018-07-30T04:57:03.380Z,25.01
2018-07-30T04:58:03.325Z,25.12
2018-07-30T04:59:03.336Z,25.42
2018-07-30T05:00:03.345Z,25.32
2018-07-30T05:01:03.349Z,25.57
2018-07-30T05:02:03.354Z,25.67
2018-07-30T05:03:03.360Z,25.86
2018-07-30T05:04:03.411Z,25.75
2018-07-30T05:05:03.378Z,25.69
2018-07-30T05:06:03.379Z,25.89
2018-07-30T05:07:03.424Z,25.77
2018-07-30T05:08:03.402Z,25.47
2018-07-30T05:09:03.392Z,25.42
2018-07-30T05:10:03.406Z,25.28
2018-07-30T05:11:03.422Z,25.24
2018-07-30T05:12:03.414Z,25.42
2018-07-30T05:13:03.871Z,25.57
2018-07-30T05:14:12.753Z,25.62
2018-07-30T05:16:04.583Z,25.52
2018-07-30T05:16:56.844Z,25.68
2018-07-30T05:17:56.854Z,25.71
2018-07-30T05:18:56.869Z,25.56
2018-07-30T05:19:57.130Z,25.65
2018-07-30T05:20:56.921Z,25.54
2018-07-30T05:21:56.872Z,25.80
2018-07-30T05:22:56.931Z,26.06
2018-07-30T05:23:56.913Z,26.05
2018-07-30T05:24:56.919Z,26.05
2018-07-30T05:25:56.944Z,26.24
2018-07-30T05:26:59.947Z,26.54
2018-07-30T05:27:56.948Z,26.64
2018-07-30T05:28:56.948Z,26.65
2018-07-30T05:29:56.981Z,26.55
2018-07-30T05:30:57.588Z,26.72
2018-07-30T05:31:56.988Z,26.64
2018-07-30T05:32:57.058Z,26.54
2018-07-30T05:33:57.048Z,26.65
2018-07-30T05:34:57.152Z,26.80
2018-07-30T05:35:57.025Z,26.76
2018-07-30T05:36:56.988Z,26.65
2018-07-30T05:37:57.038Z,26.73
2018-07-30T05:38:56.996Z,26.77
2018-07-30T05:39:57.007Z,26.76
2018-07-30T05:40:57.044Z,26.69
2018-07-30T05:41:57.064Z,26.80
2018-07-30T05:42:57.032Z,26.86
2018-07-30T05:43:57.042Z,27.02
2018-07-30T05:44:57.043Z,27.10
2018-07-30T05:45:57.076Z,27.11
2018-07-30T05:46:57.094Z,27.06
2018-07-30T05:47:57.076Z,27.28
2018-07-30T05:48:57.079Z,27.28
2018-07-30T05:49:57.123Z,27.20
2018-07-30T05:50:57.093Z,27.19
2018-07-30T05:51:57.102Z,27.16
2018-07-30T05:52:57.137Z,27.10
2018-07-30T05:53:57.132Z,27.24
2018-07-30T05:54:57.145Z,27.21
2018-07-30T05:55:57.161Z,27.28
2018-07-30T05:56:57.172Z,27.11
2018-07-30T05:57:57.191Z,27.26
2018-07-30T05:58:57.185Z,27.04
2018-07-30T05:59:57.196Z,26.95
2018-07-30T06:00:57.187Z,26.91
2018-07-30T06:01:57.218Z,26.86
2018-07-30T06:02:57.264Z,26.89
2018-07-30T06:03:57.205Z,26.96
2018-07-30T06:04:57.224Z,26.83
2018-07-30T06:05:57.255Z,27.01
2018-07-30T06:06:57.229Z,26.96
2018-07-30T06:07:57.295Z,27.06
2018-07-30T06:08:57.259Z,27.11
2018-07-30T06:09:57.318Z,27.06
2018-07-30T06:10:57.332Z,27.16
2018-07-30T06:11:57.280Z,27.24
2018-07-30T06:12:57.338Z,27.23
2018-07-30T06:13:57.362Z,27.02
2018-07-30T06:14:57.333Z,27.09
2018-07-30T06:15:57.324Z,27.05
2018-07-30T06:16:57.326Z,27.13
2018-07-30T06:17:57.382Z,27.11
2018-07-30T06:18:57.350Z,26.95
2018-07-30T06:19:57.400Z,26.81
2018-07-30T06:20:57.430Z,26.72
2018-07-30T06:21:57.407Z,26.55
2018-07-30T06:22:57.405Z,26.54
2018-07-30T06:23:57.431Z,26.62
2018-07-30T06:24:57.457Z,26.67
2018-07-30T06:25:57.448Z,26.80
2018-07-30T06:26:57.457Z,26.96
2018-07-30T06:27:57.443Z,26.91
2018-07-30T06:28:57.445Z,26.84
2018-07-30T06:29:57.468Z,26.84
2018-07-30T06:30:57.497Z,26.81
2018-07-30T06:31:57.516Z,26.62
2018-07-30T06:32:57.485Z,26.59
2018-07-30T06:33:57.486Z,26.68
2018-07-30T06:34:57.530Z,26.62
2018-07-30T06:35:57.526Z,26.59
2018-07-30T06:36:57.495Z,26.59
2018-07-30T06:37:57.526Z,26.62
2018-07-30T06:38:57.520Z,26.58
2018-07-30T06:39:57.537Z,26.50
2018-07-30T06:40:57.541Z,26.35
2018-07-30T06:41:57.560Z,26.27
2018-07-30T06:42:57.549Z,26.17
2018-07-30T06:43:57.560Z,26.20
2018-07-30T06:44:57.562Z,26.28
2018-07-30T06:45:57.592Z,26.22
2018-07-30T06:46:57.580Z,26.27
2018-07-30T06:47:57.673Z,26.18
2018-07-30T06:48:57.648Z,26.22
2018-07-30T06:49:57.652Z,26.27
2018-07-30T06:50:57.660Z,26.21
2018-07-30T06:51:57.618Z,26.20
2018-07-30T06:52:57.667Z,26.20
2018-07-30T06:53:57.720Z,26.12
2018-07-30T06:54:57.642Z,26.20
2018-07-30T06:55:57.650Z,26.12
2018-07-30T06:56:57.743Z,26.01
2018-07-30T06:57:57.670Z,26.08
2018-07-30T06:58:57.659Z,26.06
2018-07-30T06:59:57.680Z,26.04
2018-07-30T07:00:57.820Z,26.09
2018-07-30T07:01:57.773Z,26.18
2018-07-30T07:02:57.717Z,26.20
2018-07-30T07:03:57.728Z,26.20
2018-07-30T07:04:57.756Z,26.24
2018-07-30T07:05:57.720Z,26.20
2018-07-30T07:06:57.714Z,26.05
2018-07-30T07:07:57.730Z,26.20
2018-07-30T07:08:57.729Z,26.20
2018-07-30T07:09:57.741Z,26.24
2018-07-30T07:10:57.781Z,26.21
2018-07-30T07:11:57.759Z,26.21
2018-07-30T07:12:57.769Z,25.99
2018-07-30T07:13:57.788Z,26.08
2018-07-30T07:14:57.840Z,26.15
2018-07-30T07:15:57.779Z,26.24
2018-07-30T07:16:57.831Z,26.24
2018-07-30T07:17:57.824Z,26.24
2018-07-30T07:18:57.800Z,26.21
2018-07-30T07:19:57.842Z,26.24
2018-07-30T07:20:57.812Z,26.18
2018-07-30T07:21:57.841Z,26.15
2018-07-30T07:22:57.848Z,26.05
2018-07-30T07:23:57.843Z,26.24
2018-07-30T07:24:57.872Z,26.18
2018-07-30T07:26:07.513Z,26.24
2018-07-30T07:27:51.319Z,26.22
2018-07-30T07:28:51.359Z,26.27
2018-07-30T07:29:51.318Z,26.28
2018-07-30T07:30:51.365Z,26.24
2018-07-30T07:31:51.332Z,26.22
2018-07-30T07:32:51.338Z,26.28
2018-07-30T07:33:51.310Z,26.32
2018-07-30T07:34:51.330Z,26.36
2018-07-30T07:35:51.344Z,26.27
2018-07-30T07:36:51.356Z,26.28
2018-07-30T07:37:51.321Z,26.29
2018-07-30T07:38:51.319Z,26.29
2018-07-30T07:39:51.350Z,26.31
2018-07-30T07:40:51.346Z,26.43
2018-07-30T07:41:51.383Z,26.42
2018-07-30T07:42:51.353Z,26.47
2018-07-30T07:43:51.380Z,26.55
2018-07-30T07:44:51.402Z,26.54
2018-07-30T07:45:51.386Z,26.49
2018-07-30T07:46:51.418Z,26.52
2018-07-30T07:47:51.449Z,26.54
2018-07-30T07:48:51.418Z,26.54
2018-07-30T07:49:51.405Z,26.55
2018-07-30T07:50:51.639Z,26.57
2018-07-30T07:51:51.437Z,26.57
2018-07-30T07:52:51.477Z,26.52
2018-07-30T07:53:51.429Z,26.58
2018-07-30T07:54:51.465Z,26.57
2018-07-30T07:55:51.469Z,26.57
2018-07-30T07:56:51.488Z,26.61
2018-07-30T07:57:51.491Z,26.61
2018-07-30T07:58:51.489Z,26.67
2018-07-30T07:59:51.505Z,26.59
2018-07-30T08:00:51.512Z,26.59
2018-07-30T08:01:51.517Z,26.61
2018-07-30T08:02:51.536Z,26.55
2018-07-30T08:03:51.549Z,26.67
2018-07-30T08:04:51.522Z,26.59
2018-07-30T08:05:53.358Z,26.62
2018-07-30T08:06:51.561Z,26.72
2018-07-30T08:07:51.564Z,26.74
2018-07-30T08:08:51.564Z,26.69
2018-07-30T08:09:51.666Z,26.74
2018-07-30T08:10:51.621Z,26.77
2018-07-30T08:11:51.555Z,26.73
2018-07-30T08:12:51.597Z,26.81
2018-07-30T08:13:51.564Z,26.91
2018-07-30T08:14:51.572Z,26.98
2018-07-30T08:15:51.611Z,27.02
2018-07-30T08:16:51.616Z,27.01
2018-07-30T08:17:51.657Z,26.95
2018-07-30T08:18:51.680Z,26.99
2018-07-30T08:19:51.636Z,27.04
2018-07-30T08:20:51.659Z,27.11
2018-07-30T08:21:51.669Z,27.16
2018-07-30T08:22:51.692Z,26.99
2018-07-30T08:23:51.666Z,26.96
2018-07-30T08:24:51.647Z,27.04
2018-07-30T08:25:51.711Z,26.96
2018-07-30T08:26:51.658Z,26.98
2018-07-30T08:27:51.679Z,26.94
2018-07-30T08:28:51.725Z,27.01
2018-07-30T08:29:51.685Z,27.05
2018-07-30T08:30:51.714Z,27.11
2018-07-30T08:31:51.749Z,27.06
2018-07-30T08:32:51.743Z,27.01
2018-07-30T08:33:51.761Z,27.05
2018-07-30T08:34:51.758Z,27.14
2018-07-30T08:35:58.361Z,27.13
2018-07-30T08:36:51.771Z,27.06
2018-07-30T08:37:51.742Z,27.24
2018-07-30T08:38:51.781Z,27.26
2018-07-30T08:39:51.821Z,27.28
2018-07-30T08:40:51.817Z,27.43
2018-07-30T08:41:51.839Z,27.17
2018-07-30T08:42:51.815Z,27.23
2018-07-30T08:43:51.815Z,27.26
2018-07-30T08:44:51.800Z,27.32
2018-07-30T08:45:51.822Z,27.41
2018-07-30T08:46:51.807Z,27.58
2018-07-30T08:47:51.908Z,27.43
2018-07-30T08:48:51.886Z,27.47
2018-07-30T08:49:51.848Z,27.39
2018-07-30T08:50:51.912Z,27.32
2018-07-30T08:51:51.873Z,27.38
2018-07-30T08:52:51.934Z,27.39
2018-07-30T08:53:51.865Z,27.48
2018-07-30T08:54:51.887Z,27.54
2018-07-30T08:55:51.900Z,27.59
2018-07-30T08:56:52.007Z,27.53
2018-07-30T08:57:51.921Z,27.51
2018-07-30T08:58:51.928Z,27.67
2018-07-30T08:59:51.914Z,27.57
2018-07-30T09:00:51.994Z,27.54
2018-07-30T09:01:51.916Z,27.53
2018-07-30T09:02:51.936Z,27.57
2018-07-30T09:03:51.978Z,27.64
2018-07-30T09:04:51.948Z,27.53
2018-07-30T09:05:51.995Z,27.53
2018-07-30T09:06:51.961Z,27.71
2018-07-30T09:07:51.996Z,27.66
2018-07-30T09:08:52.035Z,27.71
2018-07-30T09:09:52.069Z,27.79
2018-07-30T09:10:51.995Z,27.67
2018-07-30T09:11:52.002Z,27.62
2018-07-30T09:12:52.166Z,27.57
2018-07-30T09:13:52.090Z,27.71
2018-07-30T09:14:52.059Z,28.01
2018-07-30T09:15:52.088Z,27.99
2018-07-30T09:16:52.057Z,28.07
2018-07-30T09:17:52.066Z,28.21
2018-07-30T09:18:52.112Z,28.22
2018-07-30T09:19:52.076Z,28.22
2018-07-30T09:20:52.080Z,27.98
2018-07-30T09:21:52.074Z,27.89
2018-07-30T09:22:52.106Z,27.85
2018-07-30T09:23:52.150Z,27.71
2018-07-30T09:24:52.111Z,27.85
2018-07-30T09:25:52.143Z,27.86
2018-07-30T09:26:52.164Z,28.06
2018-07-30T09:27:52.127Z,28.17
2018-07-30T09:28:52.143Z,28.14
2018-07-30T09:29:52.168Z,28.62
2018-07-30T09:30:52.148Z,28.56
2018-07-30T09:31:52.157Z,28.47
2018-07-30T09:32:52.262Z,28.46
2018-07-30T09:33:52.459Z,28.56
2018-07-30T09:34:52.221Z,28.44
2018-07-30T09:35:52.200Z,28.44
2018-07-30T09:36:52.233Z,28.40
2018-07-30T09:37:52.201Z,28.43
2018-07-30T09:38:52.282Z,28.44
2018-07-30T09:39:52.227Z,28.66
2018-07-30T09:40:52.350Z,28.84
2018-07-30T09:41:52.300Z,29.03
2018-07-30T09:42:52.303Z,28.88
2018-07-30T09:43:52.276Z,28.77
2018-07-30T09:44:52.348Z,28.69
2018-07-30T09:45:52.334Z,28.77
2018-07-30T09:46:52.273Z,28.56
2018-07-30T09:47:52.319Z,28.63
2018-07-30T09:48:52.319Z,28.77
2018-07-30T09:49:52.680Z,28.77
2018-07-30T09:50:52.427Z,28.78
2018-07-30T09:51:52.375Z,28.75
2018-07-30T09:52:52.354Z,28.78
2018-07-30T09:53:52.383Z,29.03
2018-07-30T09:54:52.354Z,29.06
2018-07-30T09:55:52.354Z,29.04
2018-07-30T09:56:52.355Z,29.01
2018-07-30T09:58:01.378Z,29.13
2018-07-30T09:59:45.801Z,28.85
2018-07-30T10:00:45.784Z,28.91
2018-07-30T10:01:45.786Z,28.88
2018-07-30T10:02:45.862Z,28.87
2018-07-30T10:03:45.813Z,28.87
2018-07-30T10:04:45.817Z,28.80
2018-07-30T10:05:45.827Z,28.81
2018-07-30T10:06:45.832Z,28.75
2018-07-30T10:07:45.839Z,28.88
2018-07-30T10:08:45.847Z,29.08
2018-07-30T10:09:45.858Z,29.10
2018-07-30T10:10:45.865Z,28.80
2018-07-30T10:11:45.961Z,29.00
2018-07-30T10:12:45.885Z,29.04
2018-07-30T10:13:45.892Z,29.31
2018-07-30T10:14:45.893Z,29.45
2018-07-30T10:15:45.927Z,29.20
2018-07-30T10:16:45.916Z,29.22
2018-07-30T10:17:45.956Z,29.55
2018-07-30T10:18:45.972Z,29.50
2018-07-30T10:19:45.949Z,29.40
2018-07-30T10:20:45.953Z,29.47
2018-07-30T10:21:45.965Z,29.41
2018-07-30T10:22:45.968Z,29.40
2018-07-30T10:23:45.991Z,29.26
2018-07-30T10:24:45.987Z,29.16
2018-07-30T10:25:45.997Z,29.20
2018-07-30T10:26:46.013Z,29.11
2018-07-30T10:27:46.013Z,29.29
2018-07-30T10:28:46.031Z,29.38
2018-07-30T10:29:46.034Z,29.15
2018-07-30T10:30:46.155Z,29.18
2018-07-30T10:31:46.050Z,29.10
2018-07-30T10:32:46.074Z,29.00
2018-07-30T10:33:46.060Z,29.04
2018-07-30T10:34:46.080Z,29.10
2018-07-30T10:35:46.078Z,29.13
2018-07-30T10:36:46.089Z,29.10
2018-07-30T10:37:46.103Z,29.13
2018-07-30T10:38:46.112Z,29.23
2018-07-30T10:39:46.121Z,29.45
2018-07-30T10:40:46.127Z,29.55
2018-07-30T10:41:46.139Z,29.62
2018-07-30T10:42:46.154Z,29.56
2018-07-30T10:43:46.166Z,29.89
2018-07-30T10:44:46.162Z,30.00
2018-07-30T10:45:46.169Z,30.37
2018-07-30T10:46:46.181Z,30.18
2018-07-30T10:47:46.193Z,29.94
2018-07-30T10:48:46.192Z,29.78
2018-07-30T10:49:46.208Z,29.66
2018-07-30T10:50:46.210Z,29.81
2018-07-30T10:51:46.259Z,29.90
2018-07-30T10:52:46.241Z,29.79
2018-07-30T10:53:46.259Z,29.63
2018-07-30T10:54:46.247Z,29.79
2018-07-30T10:55:46.255Z,29.89
2018-07-30T10:56:46.272Z,29.89
2018-07-30T10:57:46.284Z,29.84
2018-07-30T10:58:46.284Z,29.86
2018-07-30T10:59:46.293Z,29.99
2018-07-30T11:00:46.299Z,29.86
2018-07-30T11:01:46.319Z,29.74
2018-07-30T11:02:46.323Z,30.00
2018-07-30T11:03:46.552Z,29.97
2018-07-30T11:04:46.339Z,29.99
2018-07-30T11:05:46.358Z,29.99
2018-07-30T11:06:46.356Z,30.46
2018-07-30T11:07:46.406Z,30.36
2018-07-30T11:08:46.380Z,30.38
2018-07-30T11:09:46.409Z,30.21
2018-07-30T11:10:46.393Z,30.07
2018-07-30T11:11:46.401Z,30.53
2018-07-30T11:12:46.415Z,30.71
2018-07-30T11:13:46.425Z,30.74
2018-07-30T11:14:46.472Z,30.50
2018-07-30T11:15:46.449Z,30.43
2018-07-30T11:16:46.451Z,30.37
2018-07-30T11:17:46.457Z,30.38
2018-07-30T11:18:46.474Z,30.53
2018-07-30T11:19:46.476Z,30.43
2018-07-30T11:20:46.485Z,30.52
2018-07-30T11:21:46.499Z,30.47
2018-07-30T11:22:46.506Z,30.53
2018-07-30T11:23:46.511Z,30.74
2018-07-30T11:24:46.527Z,31.15
2018-07-30T11:25:46.540Z,31.02
2018-07-30T11:26:46.543Z,30.83
2018-07-30T11:27:46.550Z,30.91
2018-07-30T11:28:46.562Z,30.89
2018-07-30T11:29:46.570Z,30.50
2018-07-30T11:30:46.579Z,30.34
2018-07-30T11:31:46.593Z,30.33
2018-07-30T11:32:46.598Z,30.33
2018-07-30T11:33:46.613Z,30.33
2018-07-30T11:34:46.610Z,30.34
2018-07-30T11:35:46.623Z,30.50
2018-07-30T11:36:46.641Z,30.62
2018-07-30T11:37:46.652Z,30.65
2018-07-30T11:38:46.663Z,30.78
2018-07-30T11:39:46.663Z,30.83
2018-07-30T11:40:46.674Z,30.86
2018-07-30T11:41:46.687Z,31.23
2018-07-30T11:42:46.727Z,31.02
2018-07-30T11:43:46.804Z,31.13
2018-07-30T11:44:46.712Z,30.84
2018-07-30T11:45:46.725Z,31.11
2018-07-30T11:46:46.736Z,31.48
2018-07-30T11:47:46.744Z,31.11
2018-07-30T11:48:46.815Z,31.09
2018-07-30T11:49:46.764Z,31.40
2018-07-30T11:50:46.773Z,31.73
2018-07-30T11:51:46.781Z,31.60
2018-07-30T11:52:46.795Z,31.60
2018-07-30T11:53:46.822Z,31.54
2018-07-30T11:54:46.837Z,31.53
2018-07-30T11:55:46.820Z,31.62
2018-07-30T11:56:46.831Z,31.61
2018-07-30T11:57:46.880Z,31.40
2018-07-30T11:58:46.847Z,31.76
2018-07-30T11:59:46.860Z,31.96
2018-07-30T12:00:46.871Z,31.93
2018-07-30T12:01:46.896Z,31.65
2018-07-30T12:02:46.892Z,31.76
2018-07-30T12:03:46.899Z,31.50
2018-07-30T12:04:46.913Z,31.61
2018-07-30T12:05:46.912Z,31.75
2018-07-30T12:06:46.929Z,31.67
2018-07-30T12:07:46.931Z,31.87
2018-07-30T12:08:46.981Z,31.77
2018-07-30T12:09:46.962Z,31.39
2018-07-30T12:10:46.961Z,31.57
2018-07-30T12:11:46.973Z,31.61
2018-07-30T12:12:47.013Z,31.36
2018-07-30T12:13:46.993Z,31.12
2018-07-30T12:14:46.996Z,31.06
2018-07-30T12:15:47.007Z,31.04
2018-07-30T12:16:47.025Z,31.21
2018-07-30T12:17:47.026Z,31.30
2018-07-30T12:18:47.049Z,31.33
2018-07-30T12:19:47.047Z,31.46
2018-07-30T12:20:47.095Z,31.75
2018-07-30T12:21:47.102Z,32.02
2018-07-30T12:22:47.079Z,31.88
2018-07-30T12:23:47.091Z,31.92
2018-07-30T12:24:47.099Z,31.85
2018-07-30T12:25:47.108Z,31.82
2018-07-30T12:26:47.118Z,31.87
2018-07-30T12:27:47.136Z,31.76
2018-07-30T12:28:47.142Z,32.10
2018-07-30T12:29:47.149Z,32.18
2018-07-30T12:30:47.153Z,31.98
2018-07-30T12:31:47.170Z,31.91
2018-07-30T12:32:47.177Z,31.92
2018-07-30T12:33:47.182Z,31.82
2018-07-30T12:34:47.193Z,32.05
2018-07-30T12:35:47.199Z,32.29
2018-07-30T12:36:47.218Z,32.22
2018-07-30T12:37:55.852Z,31.82
2018-07-30T12:39:40.666Z,31.60
2018-07-30T12:40:40.658Z,31.76
2018-07-30T12:41:40.702Z,31.92
2018-07-30T12:42:40.687Z,31.70
2018-07-30T12:43:40.693Z,31.65
2018-07-30T12:44:40.705Z,31.42
2018-07-30T12:45:40.712Z,31.36
2018-07-30T12:46:40.721Z,31.40
2018-07-30T12:47:40.728Z,31.30
2018-07-30T12:48:40.735Z,31.23
2018-07-30T12:49:40.744Z,31.58
2018-07-30T12:50:40.766Z,31.98
2018-07-30T12:51:40.771Z,32.24
2018-07-30T12:52:40.782Z,32.17
2018-07-30T12:53:40.794Z,32.48
2018-07-30T12:54:40.797Z,32.47
2018-07-30T12:55:40.812Z,32.30
2018-07-30T12:56:40.819Z,32.11
2018-07-30T12:57:40.824Z,32.44
2018-07-30T12:58:40.837Z,32.21
2018-07-30T12:59:40.851Z,32.48
2018-07-30T13:00:40.861Z,32.29
2018-07-30T13:01:40.860Z,32.25
2018-07-30T13:02:40.879Z,32.14
2018-07-30T13:03:40.886Z,31.99
2018-07-30T13:04:40.898Z,32.17
2018-07-30T13:05:40.911Z,32.35
2018-07-30T13:06:40.912Z,32.40
2018-07-30T13:07:40.929Z,32.29
2018-07-30T13:08:40.933Z,32.17
2018-07-30T13:09:40.955Z,32.44
2018-07-30T13:10:40.957Z,32.33
2018-07-30T13:11:40.968Z,32.33
2018-07-30T13:12:40.982Z,32.43
2018-07-30T13:13:41.022Z,32.49
2018-07-30T13:14:40.993Z,32.37
2018-07-30T13:15:41.007Z,32.47
2018-07-30T13:16:41.017Z,32.36
2018-07-30T13:17:41.024Z,32.37
2018-07-30T13:18:41.049Z,32.51
2018-07-30T13:19:41.051Z,32.48
2018-07-30T13:20:41.056Z,32.58
2018-07-30T13:21:41.072Z,32.52
2018-07-30T13:22:41.073Z,32.79
2018-07-30T13:23:41.085Z,32.47
2018-07-30T13:24:41.094Z,32.35
2018-07-30T13:25:41.107Z,32.22
2018-07-30T13:26:41.225Z,32.13
2018-07-30T13:27:41.139Z,31.91
2018-07-30T13:28:41.146Z,31.96
2018-07-30T13:29:41.153Z,31.85
2018-07-30T13:30:41.170Z,31.95
2018-07-30T13:31:41.172Z,32.11
2018-07-30T13:32:41.255Z,32.37
2018-07-30T13:33:41.185Z,32.44
2018-07-30T13:34:41.208Z,32.52
2018-07-30T13:35:41.217Z,32.67
2018-07-30T13:36:41.220Z,32.58
2018-07-30T13:37:41.233Z,32.54
2018-07-30T13:38:41.245Z,32.35
2018-07-30T13:39:41.248Z,32.73
2018-07-30T13:40:41.269Z,32.58
2018-07-30T13:41:41.269Z,32.67
2018-07-30T13:42:41.287Z,32.74
2018-07-30T13:43:41.291Z,32.88
2018-07-30T13:44:41.300Z,32.73
2018-07-30T13:45:41.312Z,32.74
2018-07-30T13:46:41.320Z,32.79
2018-07-30T13:47:41.333Z,32.73
2018-07-30T13:48:41.344Z,32.73
2018-07-30T13:49:41.348Z,32.76
2018-07-30T13:50:41.370Z,32.57
2018-07-30T13:51:41.368Z,32.32
2018-07-30T13:52:41.398Z,32.33
2018-07-30T13:53:41.392Z,32.69
2018-07-30T13:54:41.461Z,32.71
2018-07-30T13:55:41.413Z,32.81
2018-07-30T13:56:41.424Z,32.93
2018-07-30T13:57:41.435Z,32.74
2018-07-30T13:58:41.450Z,32.71
2018-07-30T13:59:41.455Z,32.79
2018-07-30T14:00:41.491Z,32.67
2018-07-30T14:01:41.480Z,32.95
2018-07-30T14:02:41.499Z,33.19
2018-07-30T14:03:41.513Z,32.99
2018-07-30T14:04:41.500Z,32.71
2018-07-30T14:05:41.548Z,32.52
2018-07-30T14:06:41.558Z,32.54
2018-07-30T14:07:41.544Z,32.57
2018-07-30T14:08:41.680Z,32.73
2018-07-30T14:09:41.559Z,32.76
2018-07-30T14:10:41.571Z,32.73
2018-07-30T14:11:41.592Z,32.86
2018-07-30T14:12:41.613Z,32.80
2018-07-30T14:13:41.602Z,32.49
2018-07-30T14:14:41.615Z,32.32
2018-07-30T14:15:41.617Z,32.27
2018-07-30T14:16:41.635Z,32.27
2018-07-30T14:17:41.647Z,32.51
2018-07-30T14:18:41.671Z,32.74
2018-07-30T14:19:41.674Z,32.84
2018-07-30T14:20:41.678Z,32.79
2018-07-30T14:21:41.685Z,32.64
2018-07-30T14:22:41.696Z,32.73
2018-07-30T14:23:41.710Z,32.61
2018-07-30T14:24:41.738Z,32.48
2018-07-30T14:25:41.731Z,32.66
2018-07-30T14:26:41.753Z,32.37
2018-07-30T14:27:41.753Z,32.58
2018-07-30T14:28:41.759Z,32.55
2018-07-30T14:29:41.768Z,32.73
2018-07-30T14:30:41.783Z,32.69
2018-07-30T14:31:41.785Z,32.58
2018-07-30T14:32:41.818Z,32.47
2018-07-30T14:33:41.812Z,32.47
2018-07-30T14:34:41.822Z,32.42
2018-07-30T14:35:41.834Z,32.52
2018-07-30T14:36:41.878Z,32.70
2018-07-30T14:37:41.852Z,32.64
2018-07-30T14:38:41.873Z,32.71
2018-07-30T14:39:41.869Z,32.76
2018-07-30T14:40:41.883Z,32.64
2018-07-30T14:41:41.890Z,32.58
2018-07-30T14:42:41.907Z,32.61
2018-07-30T14:43:41.914Z,32.77
2018-07-30T14:44:41.943Z,32.74
2018-07-30T14:45:41.940Z,32.93
2018-07-30T14:46:41.953Z,32.96
2018-07-30T14:47:42.258Z,33.03
2018-07-30T14:48:41.968Z,33.08
2018-07-30T14:49:41.978Z,33.04
2018-07-30T14:50:41.993Z,32.79
2018-07-30T14:51:42.063Z,32.73
2018-07-30T14:52:42.014Z,32.54
2018-07-30T14:53:42.026Z,32.74
2018-07-30T14:54:42.035Z,32.79
2018-07-30T14:55:42.042Z,32.84
2018-07-30T14:56:42.053Z,32.58
2018-07-30T14:57:42.071Z,32.70
2018-07-30T14:58:42.073Z,32.95
2018-07-30T14:59:42.158Z,33.14
2018-07-30T15:00:42.096Z,33.06
2018-07-30T15:01:42.105Z,33.15
2018-07-30T15:02:42.117Z,33.13
2018-07-30T15:03:42.129Z,33.15
2018-07-30T15:04:42.145Z,33.03
2018-07-30T15:05:42.150Z,33.07
2018-07-30T15:06:42.166Z,33.08
2018-07-30T15:07:42.176Z,33.17
2018-07-30T15:08:42.193Z,33.13
2018-07-30T15:09:42.195Z,33.13
2018-07-30T15:10:42.199Z,33.07
2018-07-30T15:11:42.209Z,32.79
2018-07-30T15:12:42.224Z,32.64
2018-07-30T15:13:42.233Z,32.58
2018-07-30T15:14:42.247Z,32.54
2018-07-30T15:15:42.260Z,32.66
2018-07-30T15:16:42.267Z,32.73
2018-07-30T15:17:42.275Z,32.93
2018-07-30T15:18:42.291Z,32.98
2018-07-30T15:19:42.296Z,33.07
2018-07-30T15:20:42.306Z,33.06
2018-07-30T15:21:42.318Z,33.27
2018-07-30T15:22:42.333Z,33.04
2018-07-30T15:23:42.345Z,32.88
2018-07-30T15:24:42.366Z,33.04
2018-07-30T15:25:42.374Z,33.20
2018-07-30T15:26:42.376Z,33.06
2018-07-30T15:27:42.393Z,32.95
2018-07-30T15:28:42.394Z,32.84
2018-07-30T15:29:42.406Z,32.80
2018-07-30T15:30:42.420Z,32.96
2018-07-30T15:31:42.431Z,33.06
2018-07-30T15:32:42.436Z,32.99
2018-07-30T15:33:42.448Z,32.96
2018-07-30T15:34:42.463Z,32.99
2018-07-30T15:35:42.470Z,32.91
2018-07-30T15:36:42.480Z,32.80
2018-07-30T15:37:42.498Z,32.85
2018-07-30T15:38:42.509Z,32.92
2018-07-30T15:39:42.511Z,32.91
2018-07-30T15:40:42.590Z,32.84
2018-07-30T15:41:42.544Z,32.77
2018-07-30T15:42:42.542Z,32.74
2018-07-30T15:43:42.566Z,32.69
2018-07-30T15:44:42.565Z,32.81
2018-07-30T15:45:42.579Z,33.04
2018-07-30T15:46:42.644Z,33.03
2018-07-30T15:47:42.600Z,32.93
2018-07-30T15:48:42.741Z,32.86
2018-07-30T15:49:42.619Z,32.79
2018-07-30T15:50:42.637Z,32.73
2018-07-30T15:51:42.641Z,32.62
2018-07-30T15:52:42.656Z,32.57
2018-07-30T15:53:42.668Z,32.49
2018-07-30T15:54:42.711Z,32.40
2018-07-30T15:55:42.684Z,32.59
2018-07-30T15:56:42.699Z,32.59
2018-07-30T15:57:42.711Z,32.59
2018-07-30T15:58:42.723Z,32.61
2018-07-30T15:59:42.723Z,32.85
2018-07-30T16:00:42.744Z,32.76
2018-07-30T16:01:42.753Z,32.76
2018-07-30T16:02:42.760Z,32.80
2018-07-30T16:03:42.788Z,32.84
2018-07-30T16:04:42.778Z,32.69
2018-07-30T16:05:42.815Z,32.73
2018-07-30T16:06:42.805Z,32.57
2018-07-30T16:07:42.841Z,32.40
2018-07-30T16:08:42.826Z,32.52
2018-07-30T16:09:42.838Z,32.57
2018-07-30T16:10:42.860Z,32.47
2018-07-30T16:11:42.867Z,32.55
2018-07-30T16:12:42.861Z,32.62